createdAt,value
2022-08-26T00:02:23.125Z,101591.94
2022-08-26T00:04:49.592Z,101599.72
2022-08-26T00:07:16.136Z,101597.47
2022-08-26T00:09:42.614Z,101599.06
2022-08-26T00:12:13.884Z,101590.81
2022-08-26T00:14:41.583Z,101593.88
2022-08-26T00:17:09.021Z,101596.47
2022-08-26T00:19:35.660Z,101585.44
2022-08-26T00:22:02.135Z,101595.50
2022-08-26T00:24:28.615Z,101596.00
2022-08-26T00:26:55.086Z,101600.88
2022-08-26T00:29:29.105Z,101591.28
2022-08-26T00:31:58.437Z,101587.72
2022-08-26T00:34:24.907Z,101590.31
2022-08-26T00:36:52.197Z,101590.00
2022-08-26T00:39:19.896Z,101588.03
2022-08-26T00:41:55.960Z,101593.88
2022-08-26T00:44:23.156Z,101585.63
2022-08-26T00:46:54.737Z,101584.63
2022-08-26T00:49:41.987Z,101579.78
2022-08-26T00:52:34.652Z,101596.00
2022-08-26T00:55:19.706Z,101596.81
2022-08-26T00:58:00.869Z,101599.09
2022-08-26T01:00:30.265Z,101601.34
2022-08-26T01:03:00.287Z,101597.94
2022-08-26T01:05:27.647Z,101599.22
2022-08-26T01:07:57.099Z,101599.22
2022-08-26T01:10:29.576Z,101597.59
2022-08-26T01:13:00.279Z,101595.19
2022-08-26T01:15:32.739Z,101589.84
2022-08-26T01:18:07.344Z,101589.00
2022-08-26T01:21:00.836Z,101588.69
2022-08-26T01:23:32.115Z,101587.56
2022-08-26T01:26:19.630Z,101579.94
2022-08-26T01:28:50.581Z,101583.97
2022-08-26T01:31:24.892Z,101579.28
2022-08-26T01:34:01.071Z,101584.63
2022-08-26T01:36:27.980Z,101589.84
2022-08-26T01:38:54.505Z,101587.72
2022-08-26T01:41:27.186Z,101588.38
2022-08-26T01:43:57.908Z,101593.72
2022-08-26T01:46:28.292Z,101588.84
2022-08-26T01:48:58.653Z,101585.13
2022-08-26T01:51:26.410Z,101583.50
2022-08-26T01:53:53.246Z,101595.69
2022-08-26T01:56:22.115Z,101582.88
2022-08-26T01:58:52.565Z,101592.75
2022-08-26T02:01:22.539Z,101594.22
2022-08-26T02:04:08.140Z,101600.22
2022-08-26T02:06:37.795Z,101592.75
2022-08-26T02:09:06.019Z,101596.31
2022-08-26T02:11:34.358Z,101602.97
2022-08-26T02:14:16.083Z,101602.19
2022-08-26T02:16:46.458Z,101598.75
2022-08-26T02:19:17.243Z,101599.56
2022-08-26T02:21:51.192Z,101590.97
2022-08-26T02:24:22.013Z,101598.09
2022-08-26T02:26:49.907Z,101595.34
2022-08-26T02:29:33.892Z,101594.22
2022-08-26T02:32:00.764Z,101598.09
2022-08-26T02:34:32.718Z,101593.22
2022-08-26T02:37:04.256Z,101593.22
2022-08-26T02:39:32.612Z,101597.63
2022-08-26T02:41:59.478Z,101606.22
2022-08-26T02:44:30.103Z,101599.56
2022-08-26T02:46:57.355Z,101600.38
2022-08-26T02:49:24.691Z,101580.56
2022-08-26T02:51:52.223Z,101588.84
2022-08-26T02:54:28.263Z,101585.28
2022-08-26T02:56:56.328Z,101580.09
2022-08-26T02:59:24.366Z,101575.72
2022-08-26T03:01:58.182Z,101574.09
2022-08-26T03:04:25.904Z,101587.06
2022-08-26T03:06:55.408Z,101581.88
2022-08-26T03:09:22.109Z,101580.88
2022-08-26T03:11:50.044Z,101572.13
2022-08-26T03:14:18.553Z,101587.38
2022-08-26T03:16:45.025Z,101585.44
2022-08-26T03:19:14.923Z,101595.00
2022-08-26T03:21:44.703Z,101593.41
2022-08-26T03:24:14.449Z,101592.56
2022-08-26T03:26:40.871Z,101587.69
2022-08-26T03:29:38.352Z,101583.00
2022-08-26T03:32:06.151Z,101590.59
2022-08-26T03:34:33.984Z,101583.47
2022-08-26T03:37:01.667Z,101587.53
2022-08-26T03:39:28.545Z,101587.53
2022-08-26T03:41:58.816Z,101586.06
2022-08-26T03:44:25.451Z,101590.94
2022-08-26T03:46:52.071Z,101593.41
2022-08-26T03:49:18.591Z,101587.06
2022-08-26T03:51:45.016Z,101584.78
2022-08-26T03:54:18.316Z,101590.78
2022-08-26T03:56:47.578Z,101594.69
2022-08-26T03:59:14.050Z,101595.81
2022-08-26T04:01:40.859Z,101595.81
2022-08-26T04:04:07.533Z,101588.69
2022-08-26T04:06:42.392Z,101593.22
2022-08-26T04:09:11.999Z,101592.06
2022-08-26T04:11:39.665Z,101583.31
2022-08-26T04:14:10.764Z,101581.69
2022-08-26T04:16:37.284Z,101586.72
2022-08-26T04:19:03.748Z,101582.81
2022-08-26T04:21:30.292Z,101579.56
2022-08-26T04:23:58.343Z,101581.19
2022-08-26T04:26:25.611Z,101576.66
2022-08-26T04:28:55.174Z,101575.69
2022-08-26T04:31:22.554Z,101578.44
2022-08-26T04:33:50.756Z,101585.44
2022-08-26T04:36:25.588Z,101586.88
2022-08-26T04:38:52.263Z,101581.34
2022-08-26T04:41:20.548Z,101580.56
2022-08-26T04:43:51.242Z,101575.34
2022-08-26T04:46:19.829Z,101579.25
2022-08-26T04:48:46.576Z,101579.25
2022-08-26T04:51:12.948Z,101591.88
2022-08-26T04:53:39.453Z,101589.13
2022-08-26T04:56:15.514Z,101595.13
2022-08-26T04:58:42.199Z,101592.72
2022-08-26T05:01:09.647Z,101594.16
2022-08-26T05:03:36.944Z,101597.41
2022-08-26T05:06:05.243Z,101599.66
2022-08-26T05:08:31.667Z,101605.19
2022-08-26T05:10:58.085Z,101606.00
2022-08-26T05:13:27.441Z,101604.06
2022-08-26T05:16:00.578Z,101609.56
2022-08-26T05:18:30.228Z,101608.78
2022-08-26T05:20:57.415Z,101609.06
2022-08-26T05:23:24.398Z,101610.50
2022-08-26T05:25:59.314Z,101615.19
2022-08-26T05:28:28.376Z,101610.81
2022-08-26T05:30:55.875Z,101614.72
2022-08-26T05:33:23.085Z,101618.28
2022-08-26T05:35:52.778Z,101611.16
2022-08-26T05:38:26.836Z,101621.34
2022-08-26T05:40:57.115Z,101622.19
2022-08-26T05:43:23.532Z,101620.22
2022-08-26T05:45:50.579Z,101623.63
2022-08-26T05:48:22.760Z,101623.63
2022-08-26T05:50:52.802Z,101638.22
2022-08-26T05:53:21.911Z,101640.16
2022-08-26T05:55:52.601Z,101638.53
2022-08-26T05:58:21.714Z,101636.44
2022-08-26T06:01:04.221Z,101643.25
2022-08-26T06:03:33.316Z,101641.78
2022-08-26T06:06:04.869Z,101644.88
2022-08-26T06:08:33.775Z,101648.13
2022-08-26T06:11:04.431Z,101644.22
2022-08-26T06:13:33.216Z,101648.13
2022-08-26T06:16:04.890Z,101650.38
2022-08-26T06:18:35.435Z,101652.66
2022-08-26T06:21:27.714Z,101652.97
2022-08-26T06:24:16.479Z,101657.34
2022-08-26T06:26:50.398Z,101657.34
2022-08-26T06:29:24.571Z,101661.25
2022-08-26T06:31:52.201Z,101658.50
2022-08-26T06:34:18.649Z,101656.88
2022-08-26T06:36:45.211Z,101661.88
2022-08-26T06:39:18.356Z,101664.16
2022-08-26T06:41:51.422Z,101668.53
2022-08-26T06:44:26.814Z,101665.94
2022-08-26T06:46:53.521Z,101669.97
2022-08-26T06:49:25.772Z,101671.59
2022-08-26T06:52:00.279Z,101668.53
2022-08-26T06:54:28.788Z,101674.38
2022-08-26T06:56:57.465Z,101668.34
2022-08-26T06:59:31.996Z,101673.22
2022-08-26T07:01:58.695Z,101670.97
2022-08-26T07:04:34.609Z,101681.34
2022-08-26T07:07:02.233Z,101680.75
2022-08-26T07:09:33.177Z,101683.63
2022-08-26T07:11:59.616Z,101683.63
2022-08-26T07:14:37.090Z,101685.25
2022-08-26T07:17:22.168Z,101687.84
2022-08-26T07:19:51.598Z,101687.00
2022-08-26T07:22:40.704Z,101693.66
2022-08-26T07:25:09.332Z,101691.41
2022-08-26T07:28:12.374Z,101695.78
2022-08-26T07:30:41.064Z,101699.38
2022-08-26T07:33:08.415Z,101703.41
2022-08-26T07:35:37.653Z,101704.25
2022-08-26T07:38:04.328Z,101711.06
2022-08-26T07:40:31.847Z,101709.94
2022-08-26T07:42:58.441Z,101706.69
2022-08-26T07:45:42.492Z,101717.19
2022-08-26T07:48:19.076Z,101723.84
2022-08-26T07:50:50.633Z,101726.59
2022-08-26T07:53:29.518Z,101717.84
2022-08-26T07:55:56.040Z,101725.59
2022-08-26T07:58:37.926Z,101716.22
2022-08-26T08:01:05.220Z,101733.25
2022-08-26T08:03:36.759Z,101731.63
2022-08-26T08:06:03.613Z,101727.72
2022-08-26T08:08:51.576Z,101727.22
2022-08-26T08:11:22.267Z,101730.00
2022-08-26T08:13:50.010Z,101730.00
2022-08-26T08:16:26.765Z,101741.84
2022-08-26T08:18:56.463Z,101728.38
2022-08-26T08:21:26.540Z,101722.84
2022-08-26T08:23:55.586Z,101717.34
2022-08-26T08:26:23.684Z,101724.47
2022-08-26T08:28:53.051Z,101725.94
2022-08-26T08:31:38.777Z,101718.47
2022-08-26T08:34:08.052Z,101722.84
2022-08-26T08:36:35.963Z,101725.59
2022-08-26T08:39:03.018Z,101729.19
2022-08-26T08:42:06.941Z,101734.06
2022-08-26T08:44:37.107Z,101736.13
2022-08-26T08:47:09.419Z,101736.97
2022-08-26T08:49:36.184Z,101739.88
2022-08-26T08:52:11.960Z,101744.91
2022-08-26T08:54:38.549Z,101735.50
2022-08-26T08:57:12.856Z,101737.13
2022-08-26T08:59:53.278Z,101733.88
2022-08-26T09:02:43.928Z,101737.75
2022-08-26T09:05:20.636Z,101738.59
2022-08-26T09:08:06.797Z,101744.91
2022-08-26T09:10:49.722Z,101741.22
2022-08-26T09:13:26.179Z,101745.41
2022-08-26T09:16:22.123Z,101748.34
2022-08-26T09:19:19.915Z,101742.22
2022-08-26T09:21:54.412Z,101743.88
2022-08-26T09:24:40.871Z,101745.91
2022-08-26T09:27:08.787Z,101753.25
2022-08-26T09:29:44.236Z,101759.78
2022-08-26T09:32:19.320Z,101745.00
2022-08-26T09:35:06.256Z,101757.53
2022-08-26T09:40:24.279Z,101752.56
2022-08-26T09:43:22.465Z,101750.78
2022-08-26T09:45:58.503Z,101757.28
2022-08-26T09:48:34.349Z,101751.94
2022-08-26T09:51:05.996Z,101760.72
2022-08-26T09:54:02.599Z,101762.00
2022-08-26T09:56:32.688Z,101759.25
2022-08-26T09:59:00.272Z,101761.53
2022-08-26T10:01:35.680Z,101761.97
2022-08-26T10:04:23.841Z,101760.34
2022-08-26T10:06:59.718Z,101757.25
2022-08-26T10:09:28.385Z,101756.94
2022-08-26T10:12:00.629Z,101759.38
2022-08-26T10:14:39.753Z,101756.13
2022-08-26T10:17:30.889Z,101761.97
2022-08-26T10:20:04.145Z,101762.91
2022-08-26T10:22:42.172Z,101754.00
2022-08-26T10:25:15.997Z,101749.47
2022-08-26T10:27:54.916Z,101746.06
2022-08-26T10:30:27.544Z,101743.16
2022-08-26T10:33:07.766Z,101749.03
2022-08-26T10:35:37.437Z,101753.06
2022-08-26T10:38:11.843Z,101751.00
2022-08-26T10:40:55.091Z,101754.09
2022-08-26T10:43:27.145Z,101753.94
2022-08-26T10:45:59.381Z,101753.63
2022-08-26T10:48:49.376Z,101744.53
2022-08-26T10:51:35.417Z,101760.13
2022-08-26T10:54:09.221Z,101757.66
2022-08-26T10:57:09.587Z,101753.13
2022-08-26T10:59:48.165Z,101761.75
2022-08-26T11:02:40.151Z,101754.75
2022-08-26T11:05:22.356Z,101752.47
2022-08-26T11:07:56.022Z,101759.13
2022-08-26T11:10:23.484Z,101757.50
2022-08-26T11:12:59.708Z,101757.81
2022-08-26T11:15:29.468Z,101754.75
2022-08-26T11:18:05.363Z,101765.78
2022-08-26T11:20:42.435Z,101753.81
2022-08-26T11:23:12.371Z,101756.91
2022-08-26T11:26:30.033Z,101759.31
2022-08-26T11:29:03.154Z,101749.91
2022-08-26T11:31:30.489Z,101763.56
2022-08-26T11:34:03.124Z,101750.22
2022-08-26T11:36:47.804Z,101751.03
2022-08-26T11:39:47.843Z,101765.34
2022-08-26T11:42:29.539Z,101771.16
2022-08-26T11:44:58.145Z,101758.81
2022-08-26T11:47:31.972Z,101770.66
2022-08-26T11:50:09.470Z,101759.63
2022-08-26T11:52:36.737Z,101765.16
2022-08-26T11:55:10.131Z,101764.50
2022-08-26T11:57:43.384Z,101766.63
2022-08-26T12:00:14.976Z,101766.97
2022-08-26T12:02:47.438Z,101754.28
2022-08-26T12:05:20.828Z,101759.16
2022-08-26T12:07:53.078Z,101755.28
2022-08-26T12:10:29.979Z,101760.78
2022-08-26T12:12:58.723Z,101760.94
2022-08-26T12:15:26.943Z,101763.59
2022-08-26T12:17:56.372Z,101766.19
2022-08-26T12:20:54.173Z,101761.50
2022-08-26T12:23:45.718Z,101760.66
2022-08-26T12:26:33.786Z,101756.63
2022-08-26T12:29:10.845Z,101759.88
2022-08-26T12:31:47.845Z,101764.56
2022-08-26T12:34:17.823Z,101759.22
2022-08-26T12:36:55.475Z,101763.13
2022-08-26T12:39:35.410Z,101761.31
2022-08-26T12:42:06.434Z,101764.41
2022-08-26T12:44:34.015Z,101774.47
2022-08-26T12:47:09.777Z,101769.59
2022-08-26T12:49:39.408Z,101771.72
2022-08-26T12:52:09.346Z,101777.56
2022-08-26T12:54:56.823Z,101778.22
2022-08-26T12:57:30.388Z,101783.53
2022-08-26T13:00:29.538Z,101783.19
2022-08-26T13:02:56.862Z,101787.22
2022-08-26T13:05:30.788Z,101775.19
2022-08-26T13:08:24.457Z,101770.03
2022-08-26T13:11:24.787Z,101777.81
2022-08-26T13:13:59.094Z,101776.00
2022-08-26T13:16:26.196Z,101772.09
2022-08-26T13:19:01.466Z,101769.63
2022-08-26T13:21:32.044Z,101770.47
2022-08-26T13:24:13.510Z,101767.06
2022-08-26T13:26:41.624Z,101770.81
2022-08-26T13:29:10.471Z,101765.44
2022-08-26T13:31:40.124Z,101769.53
2022-08-26T13:34:10.735Z,101765.44
2022-08-26T13:36:37.267Z,101762.88
2022-08-26T13:39:05.087Z,101761.25
2022-08-26T13:41:32.118Z,101758.19
2022-08-26T13:43:59.644Z,101753.97
2022-08-26T13:46:27.916Z,101762.56
2022-08-26T13:48:54.951Z,101755.28
2022-08-26T13:51:22.695Z,101753.50
2022-08-26T13:53:50.546Z,101755.78
2022-08-26T13:56:18.748Z,101755.16
2022-08-26T13:58:46.194Z,101759.88
2022-08-26T14:01:13.855Z,101765.03
2022-08-26T14:03:40.418Z,101761.78
2022-08-26T14:06:07.331Z,101773.47
2022-08-26T14:08:33.821Z,101764.34
2022-08-26T14:11:00.563Z,101762.88
2022-08-26T14:13:27.220Z,101763.81
2022-08-26T14:15:54.092Z,101762.03
2022-08-26T14:18:26.907Z,101762.69
2022-08-26T14:20:55.186Z,101768.50
2022-08-26T14:23:22.623Z,101757.97
2022-08-26T14:25:49.292Z,101766.22
2022-08-26T14:28:15.815Z,101764.13
2022-08-26T14:30:44.319Z,101761.06
2022-08-26T14:33:13.012Z,101758.59
2022-08-26T14:35:39.917Z,101759.44
2022-08-26T14:38:14.491Z,101752.44
2022-08-26T14:40:44.604Z,101754.91
2022-08-26T14:43:15.800Z,101751.16
2022-08-26T14:45:45.563Z,101749.22
2022-08-26T14:48:12.090Z,101753.75
2022-08-26T14:50:38.596Z,101750.69
2022-08-26T14:53:40.179Z,101740.78
2022-08-26T14:56:06.631Z,101753.63
2022-08-26T14:58:34.742Z,101744.81
2022-08-26T15:01:04.231Z,101743.66
2022-08-26T15:03:30.965Z,101746.75
2022-08-26T15:05:57.917Z,101745.63
2022-08-26T15:08:24.510Z,101743.03
2022-08-26T15:10:51.005Z,101743.66
2022-08-26T15:13:17.479Z,101739.63
2022-08-26T15:15:44.503Z,101746.13
2022-08-26T15:18:10.978Z,101748.53
2022-08-26T15:20:37.440Z,101747.25
2022-08-26T15:23:06.536Z,101744.50
2022-08-26T15:25:33.144Z,101739.78
2022-08-26T15:27:59.623Z,101739.78
2022-08-26T15:30:26.075Z,101736.22
2022-08-26T15:32:52.492Z,101740.59
2022-08-26T15:35:19.197Z,101739.28
2022-08-26T15:37:45.641Z,101733.47
2022-08-26T15:40:12.208Z,101733.94
2022-08-26T15:42:38.808Z,101731.34
2022-08-26T15:45:05.579Z,101722.25
2022-08-26T15:47:31.999Z,101724.34
2022-08-26T15:50:05.627Z,101721.59
2022-08-26T15:52:32.059Z,101721.94
2022-08-26T15:54:58.524Z,101729.06
2022-08-26T15:57:25.143Z,101732.13
2022-08-26T15:59:53.347Z,101727.91
2022-08-26T16:02:19.880Z,101726.91
2022-08-26T16:04:46.533Z,101725.28
2022-08-26T16:07:12.975Z,101728.53
2022-08-26T16:09:39.431Z,101730.16
2022-08-26T16:12:05.975Z,101726.56
2022-08-26T16:14:32.500Z,101722.19
2022-08-26T16:16:58.972Z,101724.94
2022-08-26T16:19:25.552Z,101722.81
2022-08-26T16:21:52.143Z,101720.69
2022-08-26T16:24:24.770Z,101723.94
2022-08-26T16:26:54.482Z,101730.09
2022-08-26T16:29:20.918Z,101726.69
2022-08-26T16:31:50.528Z,101725.22
2022-08-26T16:34:17.217Z,101724.09
2022-08-26T16:36:43.690Z,101728.31
2022-08-26T16:39:10.478Z,101734.75
2022-08-26T16:41:37.071Z,101734.88
2022-08-26T16:44:07.750Z,101728.06
2022-08-26T16:46:35.244Z,101733.88
2022-08-26T16:49:04.452Z,101735.50
2022-08-26T16:51:32.497Z,101735.19
2022-08-26T16:54:04.615Z,101735.19
2022-08-26T16:56:34.206Z,101742.31
2022-08-26T16:59:02.807Z,101739.56
2022-08-26T17:01:29.362Z,101744.06
2022-08-26T17:03:55.835Z,101739.69
2022-08-26T17:06:22.293Z,101744.38
2022-08-26T17:08:49.213Z,101746.84
2022-08-26T17:11:16.019Z,101743.22
2022-08-26T17:13:42.645Z,101750.34
2022-08-26T17:16:14.285Z,101748.72
2022-08-26T17:18:41.307Z,101742.22
2022-08-26T17:21:11.432Z,101748.34
2022-08-26T17:23:40.930Z,101749.66
2022-08-26T17:26:07.969Z,101756.13
2022-08-26T17:28:34.748Z,101754.28
2022-08-26T17:31:01.717Z,101750.25
2022-08-26T17:33:28.854Z,101761.56
2022-08-26T17:35:55.303Z,101765.78
2022-08-26T17:38:22.011Z,101758.13
2022-08-26T17:40:49.689Z,101764.16
2022-08-26T17:43:16.691Z,101763.16
2022-08-26T17:45:43.348Z,101760.31
2022-08-26T17:48:11.104Z,101771.66
2022-08-26T17:50:39.437Z,101766.44
2022-08-26T17:53:05.823Z,101766.28
2022-08-26T17:55:32.419Z,101762.38
2022-08-26T17:57:59.976Z,101767.28
2022-08-26T18:00:30.450Z,101773.09
2022-08-26T18:02:56.943Z,101780.03
2022-08-26T18:05:23.821Z,101772.28
2022-08-26T18:07:50.951Z,101781.16
2022-08-26T18:10:19.748Z,101781.66
2022-08-26T18:12:47.139Z,101777.28
2022-08-26T18:15:16.380Z,101781.00
2022-08-26T18:17:42.917Z,101781.00
2022-08-26T18:20:12.592Z,101775.47
2022-08-26T18:22:39.061Z,101775.78
2022-08-26T18:25:06.882Z,101782.03
2022-08-26T18:27:35.541Z,101783.16
2022-08-26T18:30:09.812Z,101787.53
2022-08-26T18:32:38.921Z,101780.22
2022-08-26T18:35:05.672Z,101794.78
2022-08-26T18:37:32.219Z,101787.13
2022-08-26T18:39:59.531Z,101786.31
2022-08-26T18:42:26.668Z,101784.69
2022-08-26T18:44:53.315Z,101792.72
2022-08-26T18:47:19.749Z,101788.84
2022-08-26T18:49:47.266Z,101792.72
2022-08-26T18:52:13.661Z,101798.84
2022-08-26T18:54:40.056Z,101796.94
2022-08-26T18:57:06.455Z,101798.06
2022-08-26T18:59:33.485Z,101803.84
2022-08-26T19:02:00.153Z,101805.31
2022-08-26T19:04:26.948Z,101806.59
2022-08-26T19:06:53.893Z,101808.84
2022-08-26T19:09:21.090Z,101813.84
2022-08-26T19:11:49.622Z,101809.78
2022-08-26T19:14:16.736Z,101816.41
2022-08-26T19:16:46.082Z,101814.28
2022-08-26T19:19:12.975Z,101820.59
2022-08-26T19:21:39.664Z,101824.97
2022-08-26T19:24:15.051Z,101817.31
2022-08-26T19:26:43.684Z,101821.41
2022-08-26T19:29:10.155Z,101821.72
2022-08-26T19:31:36.605Z,101817.31
2022-08-26T19:34:05.202Z,101815.09
2022-08-26T19:36:32.363Z,101812.34
2022-08-26T19:38:58.792Z,101817.03
2022-08-26T19:41:36.802Z,101823.94
2022-08-26T19:44:07.741Z,101825.06
2022-08-26T19:46:34.402Z,101828.94
2022-08-26T19:49:00.906Z,101832.81
2022-08-26T19:51:30.519Z,101829.09
2022-08-26T19:53:59.376Z,101823.69
2022-08-26T19:56:26.924Z,101834.47
2022-08-26T19:58:55.110Z,101831.22
2022-08-26T20:01:22.708Z,101828.28
2022-08-26T20:03:49.651Z,101832.25
2022-08-26T20:06:17.053Z,101835.91
2022-08-26T20:08:52.034Z,101838.47
2022-08-26T20:11:20.345Z,101836.59
2022-08-26T20:13:48.207Z,101838.56
2022-08-26T20:16:16.986Z,101835.50
2022-08-26T20:19:03.777Z,101832.72
2022-08-26T20:21:35.624Z,101829.19
2022-08-26T20:24:18.061Z,101818.78
2022-08-26T20:26:45.339Z,101817.66
2022-08-26T20:29:14.566Z,101823.78
2022-08-26T20:31:42.282Z,101830.41
2022-08-26T20:34:21.083Z,101833.66
2022-08-26T20:36:49.570Z,101829.78
2022-08-26T20:39:21.120Z,101826.81
2022-08-26T20:41:48.271Z,101820.00
2022-08-26T20:44:16.272Z,101821.63
2022-08-26T20:46:43.126Z,101825.00
2022-08-26T20:49:18.671Z,101819.00
2022-08-26T20:51:52.042Z,101826.13
2022-08-26T20:54:23.927Z,101824.47
2022-08-26T20:56:53.926Z,101829.97
2022-08-26T20:59:21.311Z,101822.66
2022-08-26T21:01:48.563Z,101831.19
2022-08-26T21:04:18.427Z,101830.59
2022-08-26T21:06:54.429Z,101828.97
2022-08-26T21:09:25.632Z,101834.47
2022-08-26T21:11:53.220Z,101830.41
2022-08-26T21:14:23.161Z,101833.44
2022-08-26T21:16:52.234Z,101836.19
2022-08-26T21:19:18.884Z,101831.00
2022-08-26T21:21:47.013Z,101832.47
2022-08-26T21:24:14.163Z,101828.59
2022-08-26T21:26:40.819Z,101827.47
2022-08-26T21:29:09.935Z,101840.97
2022-08-26T21:31:41.023Z,101832.47
2022-08-26T21:34:11.676Z,101841.84
2022-08-26T21:36:38.135Z,101832.56
2022-08-26T21:39:08.120Z,101844.16
2022-08-26T21:41:42.107Z,101848.84
2022-08-26T21:44:09.335Z,101835.41
2022-08-26T21:46:37.221Z,101844.75
2022-08-26T21:49:07.388Z,101838.22
2022-08-26T21:51:37.340Z,101845.34
2022-08-26T21:54:10.725Z,101849.81
2022-08-26T21:56:44.552Z,101837.19
2022-08-26T21:59:11.624Z,101854.81
2022-08-26T22:01:38.169Z,101843.81
2022-08-26T22:04:07.227Z,101850.50
2022-08-26T22:06:42.135Z,101851.63
2022-08-26T22:09:26.284Z,101849.72
2022-08-26T22:11:53.827Z,101849.19
2022-08-26T22:14:30.413Z,101846.72
2022-08-26T22:16:58.729Z,101852.81
2022-08-26T22:19:25.542Z,101855.88
2022-08-26T22:21:54.107Z,101852.63
2022-08-26T22:24:23.610Z,101856.69
2022-08-26T22:26:50.859Z,101849.56
2022-08-26T22:29:18.860Z,101851.19
2022-08-26T22:31:46.418Z,101858.91
2022-08-26T22:34:19.506Z,101847.13
2022-08-26T22:36:48.944Z,101854.06
2022-08-26T22:39:18.428Z,101852.94
2022-08-26T22:41:48.152Z,101853.41
2022-08-26T22:44:16.218Z,101847.94
2022-08-26T22:46:54.227Z,101853.75
2022-08-26T22:49:21.399Z,101847.44
2022-08-26T22:51:54.459Z,101845.28
2022-08-26T22:54:21.100Z,101845.88
2022-08-26T22:56:47.552Z,101841.00
2022-08-26T22:59:24.862Z,101842.63
2022-08-26T23:01:51.610Z,101841.50
2022-08-26T23:04:18.902Z,101842.63
2022-08-26T23:06:47.591Z,101837.13
2022-08-26T23:09:18.231Z,101836.09
2022-08-26T23:12:02.469Z,101838.53
2022-08-26T23:14:44.134Z,101839.38
2022-08-26T23:17:12.011Z,101841.00
2022-08-26T23:19:38.496Z,101835.78
2022-08-26T23:22:11.346Z,101839.97
2022-08-26T23:24:37.899Z,101833.94
2022-08-26T23:27:05.028Z,101831.72
2022-08-26T23:29:31.507Z,101821.00
2022-08-26T23:31:58.514Z,101832.00
2022-08-26T23:34:43.789Z,101827.94
2022-08-26T23:37:12.705Z,101827.94
2022-08-26T23:39:41.211Z,101828.00
2022-08-26T23:42:21.997Z,101834.63
2022-08-26T23:44:48.826Z,101834.03
2022-08-26T23:47:17.006Z,101834.81
2022-08-26T23:49:43.514Z,101829.66
2022-08-26T23:52:30.670Z,101830.75
2022-08-26T23:54:58.231Z,101816.94
2022-08-26T23:57:26.668Z,101817.78
2022-08-26T23:59:53.558Z,101825.63
